Omaha, NE

4:35 AM CDT on May 26, 2015 (GMT -0500)
Council Bluffs Municipal | | Change Station
CLOSE
Current Station
Airport
Location: Council Bluffs,
Elevation: 1253 ft
Nearby Weather Stations

Elev 1253 ft 41.26 °N, 95.76 °W | Updated 20 minutes ago

Overcast
Overcast
61 °F
Feels Like 61 °F
N
14
Wind Variable Wind from South

Today
High -- | Low -- °F
--% Chance of Precip.
Yesterday
High -- | Low -- °F
Precip. -- in
5:56 AM 8:45 PM
First Quarter, 56% visible
Pressure 29.80 in
Visibility 10.0 miles
Clouds Few 1000 ft
Scattered Clouds 7000 ft
Mostly Cloudy 7500 ft
Dew Point 61 °F
Humidity 100%
Rainfall 0.00 in
Snow Depth Not available.
UV 0 out of 12
Pollen 2.00 out of 12
Air Quality Not available.
Flu Activity No Activity
METAR KCBF 260915Z AUTO 17012KT 10SM FEW010 SCT070 BKN075 16/16 A2980 RMK AO2

More Conditions Fewer Conditions

Pressure 29.80 in
Visibility 10.0 miles
Clouds Few 1000 ft
Scattered Clouds 7000 ft
Mostly Cloudy 7500 ft
Dew Point 61 °F
Humidity 100%
Rainfall 0.00 in
Snow Depth Not available.
UV 0 out of 12
Pollen 2.00 out of 12
Air Quality Not available.
Flu Activity No Activity
METAR KCBF 260915Z AUTO 17012KT 10SM FEW010 SCT070 BKN075 16/16 A2980 RMK AO2

More Conditions Fewer Conditions

10-Day Weather Forecast

Almanac

Astronomy

May. 26, 2015 Rise Set
Actual Time
Civil Twilight
Nautical Twilight
Astronomical Twilight
Moon
Length of Visible Light
Length of Day
Tomorrow will be .
, % of the Moon is Illuminated

Today's Extremes

State Highs State Lows

Community

WunderPhotos

Upload Photos

1,824,302 photos uploaded!

WunderBlogs® & News

Nearby

Air Quality

  Air Quality AQ Index Pollutant
Not available.

Snow Depth

Station Depth Elevation

Earthquake Activity

City Distance Mag. Time & Date
Minimum magnitude displayed is 2.5.

Coastal Water Temperatures

Place Temperature

Stations

Nearby Weather Stations

Station Location Temp. Windchill Dew Point Humidity Wind Precip. Elev Updated Type